createdAt,value
2022-11-08T00:02:09.931Z,3.20
2022-11-08T00:04:36.712Z,3.20
2022-11-08T00:07:21.772Z,3.20
2022-11-08T00:10:07.393Z,3.20
2022-11-08T00:12:52.886Z,3.10
2022-11-08T00:15:20.742Z,3.10
2022-11-08T00:17:47.474Z,3.30
2022-11-08T00:20:14.345Z,3.30
2022-11-08T00:22:41.098Z,3.30
2022-11-08T00:25:08.522Z,3.30
2022-11-08T00:27:35.318Z,3.20
2022-11-08T00:30:02.075Z,3.30
2022-11-08T00:32:28.759Z,3.30
2022-11-08T00:34:55.478Z,3.30
2022-11-08T00:37:22.826Z,3.20
2022-11-08T00:39:49.932Z,3.20
2022-11-08T00:42:16.699Z,3.10
2022-11-08T00:44:43.460Z,3.10
2022-11-08T00:47:10.525Z,3.20
2022-11-08T00:49:37.301Z,3.20
2022-11-08T00:52:04.227Z,3.20
2022-11-08T00:54:31.055Z,3.20
2022-11-08T00:56:57.784Z,3.20
2022-11-08T00:59:24.598Z,3.20
2022-11-08T01:01:51.499Z,3.10
2022-11-08T01:04:19.857Z,3.00
2022-11-08T01:06:46.787Z,3.00
2022-11-08T01:09:13.977Z,3.00
2022-11-08T01:11:45.322Z,3.00
2022-11-08T01:14:13.943Z,3.00
2022-11-08T01:16:41.415Z,3.00
2022-11-08T01:19:08.755Z,3.00
2022-11-08T01:21:35.649Z,3.00
2022-11-08T01:24:02.339Z,2.90
2022-11-08T01:26:29.725Z,2.90
2022-11-08T01:28:57.490Z,2.90
2022-11-08T01:31:29.591Z,2.90
2022-11-08T01:33:58.120Z,2.90
2022-11-08T01:36:27.006Z,2.90
2022-11-08T01:38:54.894Z,3.00
2022-11-08T01:41:22.849Z,2.90
2022-11-08T01:43:54.313Z,2.90
2022-11-08T01:46:45.972Z,3.00
2022-11-08T01:49:20.792Z,3.00
2022-11-08T01:52:22.881Z,3.00
2022-11-08T01:55:07.516Z,3.00
2022-11-08T01:57:38.907Z,3.10
2022-11-08T02:00:10.214Z,3.00
2022-11-08T02:02:38.734Z,2.90
2022-11-08T02:05:24.669Z,2.90
2022-11-08T02:07:59.332Z,2.80
2022-11-08T02:10:33.478Z,2.90
2022-11-08T02:13:04.556Z,2.90
2022-11-08T02:15:31.803Z,2.90
2022-11-08T02:17:58.698Z,3.00
2022-11-08T02:20:25.476Z,2.90
2022-11-08T02:23:14.819Z,2.90
2022-11-08T02:25:41.754Z,2.90
2022-11-08T02:28:08.643Z,2.90
2022-11-08T02:30:37.437Z,2.80
2022-11-08T02:33:18.998Z,2.80
2022-11-08T02:35:53.896Z,2.70
2022-11-08T02:38:22.135Z,2.60
2022-11-08T02:40:53.933Z,2.70
2022-11-08T02:43:21.118Z,2.70
2022-11-08T02:45:48.626Z,2.80
2022-11-08T02:48:16.384Z,2.80
2022-11-08T02:50:43.646Z,2.80
2022-11-08T02:53:10.754Z,2.70
2022-11-08T02:55:37.694Z,2.80
2022-11-08T02:58:05.126Z,2.80
2022-11-08T03:00:32.585Z,2.80
2022-11-08T03:02:59.296Z,2.70
2022-11-08T03:05:27.263Z,2.70
2022-11-08T03:07:55.146Z,2.70
2022-11-08T03:10:23.398Z,2.70
2022-11-08T03:12:57.463Z,2.60
2022-11-08T03:15:24.637Z,2.50
2022-11-08T03:17:51.350Z,2.50
2022-11-08T03:20:18.419Z,2.50
2022-11-08T03:22:46.176Z,2.60
2022-11-08T03:25:13.529Z,2.60
2022-11-08T03:27:40.507Z,2.50
2022-11-08T03:30:08.218Z,2.50
2022-11-08T03:32:34.945Z,2.50
2022-11-08T03:35:01.659Z,2.50
2022-11-08T03:37:28.444Z,2.50
2022-11-08T03:39:55.615Z,2.50
2022-11-08T03:42:22.358Z,2.60
2022-11-08T03:44:49.060Z,2.60
2022-11-08T03:47:15.788Z,2.50
2022-11-08T03:49:42.458Z,2.50
2022-11-08T03:52:09.257Z,2.40
2022-11-08T03:54:36.007Z,2.40
2022-11-08T03:57:02.682Z,2.30
2022-11-08T03:59:29.351Z,2.40
2022-11-08T04:01:56.240Z,2.30
2022-11-08T04:04:23.082Z,2.20
2022-11-08T04:06:49.775Z,2.30
2022-11-08T04:09:20.457Z,2.40
2022-11-08T04:12:06.857Z,2.40
2022-11-08T04:14:52.283Z,2.40
2022-11-08T04:17:19.070Z,2.40
2022-11-08T04:20:04.235Z,2.40
2022-11-08T04:22:30.986Z,2.40
2022-11-08T04:24:57.657Z,2.40
2022-11-08T04:27:24.373Z,2.40
2022-11-08T04:29:51.118Z,2.30
2022-11-08T04:32:17.783Z,2.20
2022-11-08T04:34:44.477Z,2.20
2022-11-08T04:37:11.158Z,2.10
2022-11-08T04:39:37.855Z,2.20
2022-11-08T04:42:04.681Z,2.30
2022-11-08T04:44:31.378Z,2.20
2022-11-08T04:46:58.973Z,2.10
2022-11-08T04:49:25.722Z,2.20
2022-11-08T04:51:52.386Z,2.20
2022-11-08T04:54:19.172Z,2.10
2022-11-08T04:56:45.880Z,2.00
2022-11-08T04:59:12.662Z,2.10
2022-11-08T05:01:39.924Z,2.00
2022-11-08T05:04:06.837Z,1.90
2022-11-08T05:06:33.657Z,1.80
2022-11-08T05:09:00.893Z,1.80
2022-11-08T05:11:30.088Z,1.80
2022-11-08T05:13:57.478Z,1.80
2022-11-08T05:16:29.890Z,1.90
2022-11-08T05:18:57.211Z,1.90
2022-11-08T05:21:43.227Z,1.80
2022-11-08T05:24:12.222Z,1.70
2022-11-08T05:26:42.526Z,1.80
2022-11-08T05:29:10.003Z,1.80
2022-11-08T05:31:36.859Z,1.90
2022-11-08T05:34:03.922Z,1.90
2022-11-08T05:36:30.670Z,1.80
2022-11-08T05:38:57.558Z,1.70
2022-11-08T05:41:25.995Z,1.70
2022-11-08T05:43:55.121Z,1.50
2022-11-08T05:46:23.566Z,1.50
2022-11-08T05:48:50.933Z,1.50
2022-11-08T05:51:18.661Z,1.40
2022-11-08T05:53:47.077Z,1.40
2022-11-08T05:56:13.914Z,1.50
2022-11-08T05:58:40.652Z,1.50
2022-11-08T06:01:13.272Z,1.30
2022-11-08T06:03:40.373Z,1.40
2022-11-08T06:06:12.930Z,1.50
2022-11-08T06:08:40.855Z,1.60
2022-11-08T06:11:13.395Z,1.60
2022-11-08T06:13:40.831Z,1.60
2022-11-08T06:16:10.132Z,1.60
2022-11-08T06:18:37.722Z,1.60
2022-11-08T06:21:06.970Z,1.60
2022-11-08T06:23:34.710Z,1.60
2022-11-08T06:26:01.456Z,1.70
2022-11-08T06:28:28.410Z,1.70
2022-11-08T06:30:55.209Z,1.80
2022-11-08T06:33:22.292Z,1.80
2022-11-08T06:35:49.350Z,1.80
2022-11-08T06:38:16.090Z,1.70
2022-11-08T06:40:42.895Z,1.70
2022-11-08T06:43:15.062Z,1.60
2022-11-08T06:45:46.367Z,1.60
2022-11-08T06:48:13.207Z,1.60
2022-11-08T06:50:41.420Z,1.70
2022-11-08T06:53:10.616Z,1.80
2022-11-08T06:55:37.489Z,1.70
2022-11-08T06:58:04.690Z,1.60
2022-11-08T07:00:32.031Z,1.60
2022-11-08T07:03:01.462Z,1.60
2022-11-08T07:05:30.712Z,1.70
2022-11-08T07:07:58.974Z,1.80
2022-11-08T07:10:28.595Z,1.90
2022-11-08T07:13:00.443Z,2.00
2022-11-08T07:15:27.359Z,2.00
2022-11-08T07:17:54.335Z,2.10
2022-11-08T07:20:22.319Z,2.10
2022-11-08T07:22:49.014Z,2.20
2022-11-08T07:25:15.854Z,2.10
2022-11-08T07:27:42.547Z,2.10
2022-11-08T07:30:09.789Z,2.30
2022-11-08T07:32:36.511Z,2.20
2022-11-08T07:35:03.959Z,2.10
2022-11-08T07:37:31.220Z,2.10
2022-11-08T07:39:57.911Z,2.10
2022-11-08T07:42:26.007Z,1.90
2022-11-08T07:44:57.409Z,2.10
2022-11-08T07:47:24.094Z,2.30
2022-11-08T07:49:50.860Z,2.40
2022-11-08T07:52:17.527Z,2.50
2022-11-08T07:54:44.331Z,2.50
2022-11-08T07:57:11.526Z,2.50
2022-11-08T07:59:38.300Z,2.60
2022-11-08T08:02:05.268Z,2.50
2022-11-08T08:04:32.255Z,2.60
2022-11-08T08:06:59.090Z,2.60
2022-11-08T08:09:25.772Z,2.80
2022-11-08T08:11:52.519Z,2.80
2022-11-08T08:14:19.410Z,2.90
2022-11-08T08:16:46.166Z,3.10
2022-11-08T08:19:12.904Z,3.20
2022-11-08T08:21:39.709Z,3.10
2022-11-08T08:24:06.638Z,3.10
2022-11-08T08:26:33.318Z,3.30
2022-11-08T08:29:00.083Z,3.20
2022-11-08T08:31:26.983Z,3.00
2022-11-08T08:33:53.738Z,3.10
2022-11-08T08:36:20.513Z,3.20
2022-11-08T08:38:47.232Z,3.30
2022-11-08T08:41:14.134Z,3.60
2022-11-08T08:43:40.826Z,3.60
2022-11-08T08:46:07.634Z,3.70
2022-11-08T08:48:35.792Z,3.90
2022-11-08T08:51:02.584Z,4.00
2022-11-08T08:53:29.280Z,4.20
2022-11-08T08:55:56.207Z,4.40
2022-11-08T08:58:23.482Z,4.70
2022-11-08T09:03:37.319Z,5.20
2022-11-08T09:06:04.353Z,5.70
2022-11-08T09:08:31.398Z,6.00
2022-11-08T09:11:00.258Z,6.00
2022-11-08T09:13:28.507Z,6.20
2022-11-08T09:15:55.513Z,6.30
2022-11-08T09:18:22.608Z,6.30
2022-11-08T09:20:50.196Z,6.40
2022-11-08T09:23:17.931Z,6.40
2022-11-08T09:25:44.974Z,6.30
2022-11-08T09:28:11.669Z,6.50
2022-11-08T09:30:38.399Z,6.70
2022-11-08T09:33:05.402Z,6.60
2022-11-08T09:35:32.294Z,6.70
2022-11-08T09:37:59.811Z,6.90
2022-11-08T09:40:49.637Z,7.30
2022-11-08T09:43:40.324Z,7.50
2022-11-08T09:46:11.576Z,7.70
2022-11-08T09:48:42.963Z,7.80
2022-11-08T09:51:18.903Z,7.60
2022-11-08T09:53:55.057Z,8.40
2022-11-08T09:56:23.390Z,8.20
2022-11-08T09:59:03.110Z,8.60
2022-11-08T10:01:33.175Z,9.10
2022-11-08T10:04:08.744Z,9.00
2022-11-08T10:06:53.945Z,9.40
2022-11-08T10:09:54.580Z,9.70
2022-11-08T10:13:03.317Z,9.90
2022-11-08T10:15:37.642Z,10.30
2022-11-08T10:18:13.508Z,10.70
2022-11-08T10:21:07.688Z,11.30
2022-11-08T10:24:02.919Z,11.60
2022-11-08T10:26:42.620Z,12.00
2022-11-08T10:29:14.388Z,12.20
2022-11-08T10:31:43.114Z,12.70
2022-11-08T10:34:15.315Z,13.10
2022-11-08T10:36:51.092Z,13.40
2022-11-08T10:39:23.627Z,13.60
2022-11-08T10:42:11.439Z,13.90
2022-11-08T10:44:40.915Z,13.90
2022-11-08T10:47:16.426Z,14.30
2022-11-08T10:49:43.997Z,14.40
2022-11-08T10:52:34.914Z,14.10
2022-11-08T10:55:02.185Z,13.80
2022-11-08T10:57:31.880Z,13.50
2022-11-08T11:00:22.069Z,13.50
2022-11-08T11:03:01.465Z,13.60
2022-11-08T11:05:37.429Z,13.20
2022-11-08T11:08:15.363Z,13.30
2022-11-08T11:10:44.630Z,13.10
2022-11-08T11:13:24.306Z,13.20
2022-11-08T11:16:00.233Z,13.10
2022-11-08T11:18:51.492Z,13.10
2022-11-08T11:21:21.941Z,13.10
2022-11-08T11:23:54.776Z,13.10
2022-11-08T11:26:32.112Z,13.00
2022-11-08T11:29:04.752Z,12.90
2022-11-08T11:31:42.118Z,12.70
2022-11-08T11:34:52.162Z,12.70
2022-11-08T11:37:25.283Z,12.90
2022-11-08T11:40:16.285Z,12.90
2022-11-08T11:42:53.049Z,13.00
2022-11-08T11:45:23.767Z,13.10
2022-11-08T11:47:50.505Z,13.20
2022-11-08T11:50:36.504Z,13.50
2022-11-08T11:53:25.223Z,13.50
2022-11-08T11:55:59.642Z,14.40
2022-11-08T11:58:50.108Z,15.10
2022-11-08T12:02:04.817Z,15.60
2022-11-08T12:04:52.739Z,16.20
2022-11-08T12:07:28.223Z,16.70
2022-11-08T12:10:16.247Z,16.30
2022-11-08T12:12:45.901Z,16.60
2022-11-08T12:15:21.162Z,16.20
2022-11-08T12:18:10.963Z,15.80
2022-11-08T12:21:02.185Z,15.40
2022-11-08T12:23:49.326Z,15.40
2022-11-08T12:26:26.456Z,15.20
2022-11-08T12:29:14.844Z,14.90
2022-11-08T12:31:53.613Z,14.50
2022-11-08T12:34:34.134Z,14.30
2022-11-08T12:37:22.624Z,14.40
2022-11-08T12:40:18.647Z,14.30
2022-11-08T12:42:58.337Z,14.00
2022-11-08T12:46:03.613Z,14.20
2022-11-08T12:48:39.377Z,15.00
2022-11-08T12:51:18.943Z,15.60
2022-11-08T12:54:01.904Z,15.80
2022-11-08T12:56:57.926Z,15.00
2022-11-08T12:59:31.839Z,14.80
2022-11-08T13:01:59.150Z,15.30
2022-11-08T13:04:42.744Z,15.70
2022-11-08T13:07:22.879Z,15.80
2022-11-08T13:10:12.775Z,16.20
2022-11-08T13:12:48.516Z,16.30
2022-11-08T13:15:21.602Z,16.70
2022-11-08T13:18:06.747Z,16.80
2022-11-08T13:20:41.359Z,16.50
2022-11-08T13:23:27.177Z,16.40
2022-11-08T13:25:54.812Z,16.20
2022-11-08T13:28:45.381Z,15.50
2022-11-08T13:31:17.978Z,15.20
2022-11-08T13:34:08.768Z,14.80
2022-11-08T13:36:54.552Z,14.50
2022-11-08T13:39:41.171Z,14.00
2022-11-08T13:42:16.809Z,13.70
2022-11-08T13:44:55.576Z,13.40
2022-11-08T13:47:34.565Z,13.30
2022-11-08T13:50:29.058Z,13.20
2022-11-08T13:53:32.687Z,13.20
2022-11-08T13:56:24.003Z,13.30
2022-11-08T13:58:50.911Z,13.50
2022-11-08T14:01:23.781Z,13.30
2022-11-08T14:03:50.555Z,13.40
2022-11-08T14:06:46.972Z,13.40
2022-11-08T14:09:55.267Z,13.20
2022-11-08T14:12:49.815Z,13.10
2022-11-08T14:15:31.239Z,13.00
2022-11-08T14:18:09.223Z,12.90
2022-11-08T14:20:41.461Z,12.90
2022-11-08T14:23:20.330Z,12.80
2022-11-08T14:25:56.284Z,12.90
2022-11-08T14:28:28.246Z,12.80
2022-11-08T14:30:55.855Z,12.80
2022-11-08T14:33:32.910Z,12.70
2022-11-08T14:36:03.652Z,12.60
2022-11-08T14:38:33.468Z,12.50
2022-11-08T14:41:05.077Z,12.50
2022-11-08T14:43:41.442Z,12.50
2022-11-08T14:46:28.230Z,12.50
2022-11-08T14:48:56.804Z,12.50
2022-11-08T14:51:24.720Z,12.40
2022-11-08T14:53:56.546Z,12.40
2022-11-08T14:56:25.370Z,12.30
2022-11-08T14:58:54.286Z,12.30
2022-11-08T15:01:23.885Z,12.20
2022-11-08T15:03:57.112Z,12.20
2022-11-08T15:06:54.479Z,12.20
2022-11-08T15:09:29.361Z,12.20
2022-11-08T15:11:59.981Z,12.20
2022-11-08T15:14:29.936Z,12.10
2022-11-08T15:17:01.698Z,12.10
2022-11-08T15:19:42.199Z,12.10
2022-11-08T15:22:30.996Z,12.00
2022-11-08T15:25:22.697Z,11.90
2022-11-08T15:28:14.094Z,11.80
2022-11-08T15:30:45.463Z,11.70
2022-11-08T15:33:36.730Z,11.70
2022-11-08T15:36:15.145Z,11.50
2022-11-08T15:38:49.102Z,11.40
2022-11-08T15:41:37.011Z,11.40
2022-11-08T15:44:23.976Z,11.20
2022-11-08T15:46:52.054Z,11.20
2022-11-08T15:49:27.955Z,11.00
2022-11-08T15:51:56.735Z,10.90
2022-11-08T15:54:24.784Z,10.70
2022-11-08T15:56:53.201Z,10.60
2022-11-08T15:59:24.316Z,10.50
2022-11-08T16:01:57.905Z,10.40
2022-11-08T16:04:24.851Z,10.20
2022-11-08T16:06:51.757Z,10.10
2022-11-08T16:09:18.579Z,10.00
2022-11-08T16:11:46.117Z,9.90
2022-11-08T16:14:22.569Z,9.80
2022-11-08T16:16:49.658Z,9.70
2022-11-08T16:19:25.727Z,9.70
2022-11-08T16:21:52.969Z,9.60
2022-11-08T16:24:19.735Z,9.50
2022-11-08T16:26:47.558Z,9.40
2022-11-08T16:29:19.954Z,9.30
2022-11-08T16:31:47.240Z,9.30
2022-11-08T16:34:14.428Z,9.20
2022-11-08T16:36:45.001Z,9.10
2022-11-08T16:39:16.485Z,9.10
2022-11-08T16:41:43.520Z,9.00
2022-11-08T16:44:11.129Z,9.00
2022-11-08T16:46:38.079Z,8.90
2022-11-08T16:49:05.679Z,8.80
2022-11-08T16:51:32.486Z,8.70
2022-11-08T16:54:02.354Z,8.60
2022-11-08T16:56:29.078Z,8.60
2022-11-08T16:58:55.767Z,8.50
2022-11-08T17:01:30.697Z,8.40
2022-11-08T17:03:57.443Z,8.40
2022-11-08T17:06:24.166Z,8.30
2022-11-08T17:08:51.143Z,8.20
2022-11-08T17:11:22.551Z,8.10
2022-11-08T17:13:49.762Z,8.10
2022-11-08T17:16:18.560Z,8.00
2022-11-08T17:18:49.800Z,8.00
2022-11-08T17:24:06.367Z,7.90
2022-11-08T17:26:33.064Z,7.80
2022-11-08T17:28:59.747Z,7.80
2022-11-08T17:31:26.493Z,7.70
2022-11-08T17:33:55.331Z,7.70
2022-11-08T17:36:22.100Z,7.60
2022-11-08T17:38:48.918Z,7.60
2022-11-08T17:41:16.243Z,7.50
2022-11-08T17:43:43.679Z,7.50
2022-11-08T17:46:14.267Z,7.30
2022-11-08T17:48:41.446Z,7.30
2022-11-08T17:51:08.817Z,7.30
2022-11-08T17:53:35.872Z,7.20
2022-11-08T17:56:05.456Z,7.20
2022-11-08T17:58:34.013Z,7.20
2022-11-08T18:01:03.334Z,7.10
2022-11-08T18:03:30.701Z,7.10
2022-11-08T18:06:06.989Z,7.10
2022-11-08T18:08:34.515Z,7.00
2022-11-08T18:11:01.618Z,7.00
2022-11-08T18:13:29.026Z,6.90
2022-11-08T18:16:04.532Z,6.90
2022-11-08T18:18:31.243Z,6.80
2022-11-08T18:20:57.983Z,6.80
2022-11-08T18:23:24.780Z,6.80
2022-11-08T18:25:53.245Z,6.80
2022-11-08T18:28:19.967Z,6.70
2022-11-08T18:30:48.228Z,6.70
2022-11-08T18:33:18.913Z,6.70
2022-11-08T18:35:46.709Z,6.70
2022-11-08T18:38:14.346Z,6.70
2022-11-08T18:40:44.448Z,6.60
2022-11-08T18:43:11.160Z,6.60
2022-11-08T18:45:38.152Z,6.60
2022-11-08T18:48:05.381Z,6.60
2022-11-08T18:50:32.426Z,6.60
2022-11-08T18:53:03.340Z,6.60
2022-11-08T18:55:31.763Z,6.50
2022-11-08T18:58:01.057Z,6.50
2022-11-08T19:00:27.839Z,6.60
2022-11-08T19:02:55.047Z,6.50
2022-11-08T19:05:21.790Z,6.50
2022-11-08T19:07:48.660Z,6.50
2022-11-08T19:10:15.460Z,6.50
2022-11-08T19:12:42.175Z,6.50
2022-11-08T19:15:09.782Z,6.50
2022-11-08T19:17:36.689Z,6.50
2022-11-08T19:20:04.306Z,6.40
2022-11-08T19:22:31.042Z,6.40
2022-11-08T19:24:57.782Z,6.40
2022-11-08T19:27:24.561Z,6.40
2022-11-08T19:29:51.465Z,6.40
2022-11-08T19:32:18.182Z,6.40
2022-11-08T19:34:48.217Z,6.40
2022-11-08T19:37:15.035Z,6.40
2022-11-08T19:39:41.859Z,6.40
2022-11-08T19:42:08.641Z,6.40
2022-11-08T19:44:35.382Z,6.30
2022-11-08T19:47:02.257Z,6.30
2022-11-08T19:49:29.145Z,6.30
2022-11-08T19:51:55.916Z,6.20
2022-11-08T19:54:22.732Z,6.20
2022-11-08T19:57:06.183Z,6.20
2022-11-08T19:59:33.435Z,6.10
2022-11-08T20:02:00.445Z,6.00
2022-11-08T20:04:27.466Z,6.00
2022-11-08T20:06:54.396Z,6.00
2022-11-08T20:09:24.679Z,5.90
2022-11-08T20:11:55.354Z,5.90
2022-11-08T20:14:22.043Z,5.80
2022-11-08T20:16:53.199Z,5.80
2022-11-08T20:19:20.578Z,5.70
2022-11-08T20:21:47.607Z,5.70
2022-11-08T20:24:15.268Z,5.70
2022-11-08T20:26:42.609Z,5.60
2022-11-08T20:29:09.621Z,5.60
2022-11-08T20:31:36.894Z,5.50
2022-11-08T20:34:06.056Z,5.40
2022-11-08T20:36:35.232Z,5.40
2022-11-08T20:39:06.818Z,5.40
2022-11-08T20:41:35.697Z,5.40
2022-11-08T20:44:03.020Z,5.40
2022-11-08T20:46:29.823Z,5.50
2022-11-08T20:49:00.266Z,5.50
2022-11-08T20:51:28.295Z,5.50
2022-11-08T20:53:56.297Z,5.60
2022-11-08T20:56:24.303Z,5.70
2022-11-08T20:58:52.006Z,5.70
2022-11-08T21:01:21.894Z,5.70
2022-11-08T21:03:49.732Z,5.60
2022-11-08T21:06:18.222Z,5.60
2022-11-08T21:11:34.430Z,5.70
2022-11-08T21:14:02.323Z,5.60
2022-11-08T21:16:31.598Z,5.70
2022-11-08T21:19:02.351Z,5.70
2022-11-08T21:21:29.335Z,5.60
2022-11-08T21:23:56.379Z,5.50
2022-11-08T21:26:23.624Z,5.60
2022-11-08T21:28:51.001Z,5.80
2022-11-08T21:31:17.887Z,5.80
2022-11-08T21:33:44.628Z,5.70
2022-11-08T21:36:12.528Z,5.70
2022-11-08T21:38:40.303Z,5.70
2022-11-08T21:41:09.116Z,5.80
2022-11-08T21:43:42.994Z,5.80
2022-11-08T21:46:22.007Z,5.80
2022-11-08T21:48:54.290Z,5.80
2022-11-08T21:51:21.647Z,5.90
2022-11-08T21:53:55.740Z,5.90
2022-11-08T21:56:25.108Z,5.80
2022-11-08T21:58:52.575Z,5.80
2022-11-08T22:01:20.476Z,5.80
2022-11-08T22:03:48.945Z,5.70
2022-11-08T22:06:15.674Z,5.70
2022-11-08T22:08:42.452Z,5.70
2022-11-08T22:11:09.226Z,5.70
2022-11-08T22:13:36.039Z,5.70
2022-11-08T22:16:02.787Z,5.80
2022-11-08T22:18:58.736Z,5.80
2022-11-08T22:21:34.976Z,5.80
2022-11-08T22:24:01.781Z,5.80
2022-11-08T22:26:28.503Z,5.80
2022-11-08T22:28:55.223Z,5.80
2022-11-08T22:31:22.023Z,5.70
2022-11-08T22:33:50.844Z,5.70
2022-11-08T22:36:20.687Z,5.70
2022-11-08T22:38:48.102Z,5.80
2022-11-08T22:41:19.445Z,5.80
2022-11-08T22:43:47.090Z,5.80
2022-11-08T22:46:14.297Z,5.80
2022-11-08T22:48:41.343Z,5.80
2022-11-08T22:51:08.342Z,5.90
2022-11-08T22:53:35.482Z,5.80
2022-11-08T22:56:06.904Z,5.80
2022-11-08T22:58:36.668Z,5.80
2022-11-08T23:01:03.739Z,5.80
2022-11-08T23:03:30.497Z,5.70
2022-11-08T23:05:58.209Z,5.80
2022-11-08T23:08:26.502Z,5.80
2022-11-08T23:11:12.120Z,5.90
2022-11-08T23:13:58.098Z,5.90
2022-11-08T23:16:37.600Z,5.80
2022-11-08T23:19:37.212Z,5.80
2022-11-08T23:22:24.863Z,5.60
2022-11-08T23:24:51.924Z,5.60
2022-11-08T23:27:38.094Z,5.60
2022-11-08T23:30:24.967Z,5.60
2022-11-08T23:32:52.376Z,5.60
2022-11-08T23:35:20.847Z,5.60
2022-11-08T23:37:47.655Z,5.50
2022-11-08T23:40:34.252Z,5.50
2022-11-08T23:43:30.488Z,5.60
2022-11-08T23:45:58.268Z,5.50
2022-11-08T23:48:26.592Z,5.40
2022-11-08T23:50:54.635Z,5.40
2022-11-08T23:53:25.192Z,5.50
2022-11-08T23:55:53.317Z,5.50
2022-11-08T23:58:20.808Z,5.50
